Terminal Aerodrome Forecast
Issued by NWS

Home | Current Version | Previous Version | Text Only | Print | Product List | Glossary On
Versions: 1 2 3 4 5 6 7 8 9 10 11 12 13 14 15 16 17 18 19 20 21 22 23 24 25 26 27 28 29 30 31 32 33 34
000
FTUS45 KBOU 241731
TAFAPA
TAF
KAPA 241731Z 2418/2518 VRB05KT P6SM FEW220
     FM242200 05008KT P6SM FEW100 SCT180
     FM250100 16007KT P6SM SCT150
     FM250400 20009KT P6SM FEW150
     FM251400 VRB05KT P6SM FEW200=

USA.gov is the U.S. government's official web portal to all federal, state and local government web resources and services.